createdAt,value
2018-12-30T00:02:19.088Z,82.23
2018-12-30T00:04:47.286Z,82.18
2018-12-30T00:07:15.391Z,81.71
2018-12-30T00:09:43.714Z,81.34
2018-12-30T00:12:11.771Z,81.58
2018-12-30T00:14:39.837Z,81.36
2018-12-30T00:17:07.602Z,80.94
2018-12-30T00:19:42.582Z,81.14
2018-12-30T00:22:05.196Z,81.00
2018-12-30T00:24:32.977Z,81.21
2018-12-30T00:27:00.716Z,81.47
2018-12-30T00:29:28.538Z,81.27
2018-12-30T00:31:56.377Z,81.31
2018-12-30T00:34:24.207Z,81.56
2018-12-30T00:36:52.044Z,81.65
2018-12-30T00:39:19.806Z,82.08
2018-12-30T00:41:47.549Z,83.32
2018-12-30T00:44:15.325Z,82.76
2018-12-30T00:46:43.143Z,82.29
2018-12-30T00:49:10.919Z,82.16
2018-12-30T00:51:38.715Z,81.72
2018-12-30T00:54:06.506Z,82.05
2018-12-30T00:56:34.683Z,82.17
2018-12-30T00:59:02.537Z,82.26
2018-12-30T01:01:30.326Z,82.54
2018-12-30T01:03:58.087Z,82.10
2018-12-30T01:06:25.993Z,82.19
2018-12-30T01:08:53.827Z,82.61
2018-12-30T01:11:21.775Z,82.31
2018-12-30T01:13:49.555Z,83.06
2018-12-30T01:16:17.477Z,83.45
2018-12-30T01:18:45.294Z,84.30
2018-12-30T01:21:13.059Z,85.41
2018-12-30T01:23:40.914Z,85.73
2018-12-30T01:26:09.807Z,85.89
2018-12-30T01:28:37.957Z,86.94
2018-12-30T01:31:05.749Z,87.30
2018-12-30T01:33:33.516Z,87.63
2018-12-30T01:36:01.341Z,87.97
2018-12-30T01:38:29.100Z,88.11
2018-12-30T01:40:59.659Z,88.16
2018-12-30T01:43:27.441Z,88.27
2018-12-30T01:45:55.241Z,88.25
2018-12-30T01:48:23.036Z,87.50
2018-12-30T01:50:51.203Z,87.83
2018-12-30T01:53:19.006Z,88.14
2018-12-30T01:55:46.881Z,88.59
2018-12-30T01:58:15.281Z,88.45
2018-12-30T02:00:43.047Z,88.74
2018-12-30T02:03:10.828Z,88.87
2018-12-30T02:05:40.632Z,89.39
2018-12-30T02:08:08.405Z,89.27
2018-12-30T02:10:36.213Z,88.83
2018-12-30T02:13:03.986Z,89.24
2018-12-30T02:15:31.755Z,89.29
2018-12-30T02:18:00.705Z,89.13
2018-12-30T02:20:28.445Z,89.03
2018-12-30T02:22:56.600Z,88.90
2018-12-30T02:25:24.337Z,88.52
2018-12-30T02:27:52.254Z,88.67
2018-12-30T02:30:20.014Z,88.83
2018-12-30T02:32:47.804Z,89.00
2018-12-30T02:35:15.544Z,88.52
2018-12-30T02:37:46.535Z,88.69
2018-12-30T02:40:14.281Z,88.16
2018-12-30T02:42:42.065Z,88.38
2018-12-30T02:45:09.846Z,88.74
2018-12-30T02:47:37.634Z,89.29
2018-12-30T02:50:05.466Z,89.41
2018-12-30T02:52:33.235Z,90.47
2018-12-30T02:55:01.023Z,89.88
2018-12-30T02:57:29.094Z,89.79
2018-12-30T02:59:56.955Z,90.35
2018-12-30T03:02:24.698Z,89.94
2018-12-30T03:04:52.594Z,89.81
2018-12-30T03:07:20.458Z,89.97
2018-12-30T03:09:48.736Z,90.22
2018-12-30T03:12:16.510Z,90.03
2018-12-30T03:14:44.300Z,89.92
2018-12-30T03:17:12.095Z,89.43
2018-12-30T03:19:39.837Z,89.57
2018-12-30T03:22:07.995Z,90.13
2018-12-30T03:24:35.839Z,90.46
2018-12-30T03:27:03.613Z,90.40
2018-12-30T03:29:31.393Z,90.60
2018-12-30T03:31:59.211Z,90.01
2018-12-30T03:34:27.001Z,90.35
2018-12-30T03:36:56.127Z,90.93
2018-12-30T03:39:23.937Z,91.46
2018-12-30T03:41:51.735Z,91.66
2018-12-30T03:44:19.893Z,91.63
2018-12-30T03:46:47.899Z,91.84
2018-12-30T03:49:15.671Z,91.69
2018-12-30T03:51:43.445Z,91.03
2018-12-30T03:54:11.281Z,90.91
2018-12-30T03:56:39.044Z,90.82
2018-12-30T03:59:07.029Z,90.91
2018-12-30T04:01:34.793Z,91.41
2018-12-30T04:04:02.763Z,91.44
2018-12-30T04:06:30.746Z,91.43
2018-12-30T04:08:58.621Z,91.40
2018-12-30T04:11:26.476Z,90.99
2018-12-30T04:13:54.251Z,91.36
2018-12-30T04:16:21.988Z,91.58
2018-12-30T04:18:49.975Z,91.94
2018-12-30T04:21:17.757Z,92.85
2018-12-30T04:23:45.862Z,92.74
2018-12-30T04:26:13.647Z,92.51
2018-12-30T04:28:41.453Z,91.86
2018-12-30T04:31:09.287Z,91.61
2018-12-30T04:33:37.286Z,91.81
2018-12-30T04:36:05.162Z,91.90
2018-12-30T04:38:32.928Z,91.65
2018-12-30T04:41:02.517Z,90.98
2018-12-30T04:43:30.296Z,91.37
2018-12-30T04:45:58.095Z,90.96
2018-12-30T04:48:25.867Z,90.63
2018-12-30T04:50:53.775Z,89.89
2018-12-30T04:53:21.614Z,89.89
2018-12-30T04:55:51.249Z,89.44
2018-12-30T04:58:19.059Z,90.17
2018-12-30T05:00:46.838Z,89.89
2018-12-30T05:03:14.637Z,90.40
2018-12-30T05:05:42.733Z,89.14
2018-12-30T05:08:10.512Z,88.92
2018-12-30T05:10:38.269Z,88.31
2018-12-30T05:13:06.045Z,88.36
2018-12-30T05:15:33.762Z,88.15
2018-12-30T05:18:01.580Z,88.26
2018-12-30T05:20:29.514Z,88.79
2018-12-30T05:22:57.307Z,88.92
2018-12-30T05:25:25.064Z,88.61
2018-12-30T05:27:53.784Z,88.04
2018-12-30T05:30:21.682Z,88.47
2018-12-30T05:32:49.720Z,88.62
2018-12-30T05:35:17.496Z,89.11
2018-12-30T05:37:45.301Z,89.36
2018-12-30T05:40:13.064Z,89.49
2018-12-30T05:42:41.203Z,89.60
2018-12-30T05:45:09.295Z,89.45
2018-12-30T05:47:37.087Z,90.04
2018-12-30T05:50:06.666Z,90.10
2018-12-30T05:52:41.619Z,90.07
2018-12-30T05:55:05.498Z,89.75
2018-12-30T05:57:33.547Z,89.52
2018-12-30T06:00:01.366Z,90.09
2018-12-30T06:02:29.162Z,90.04
2018-12-30T06:04:56.946Z,90.35
2018-12-30T06:07:24.764Z,90.33
2018-12-30T06:09:52.495Z,90.35
2018-12-30T06:12:20.314Z,90.05
2018-12-30T06:14:50.386Z,89.17
2018-12-30T06:17:18.184Z,88.02
2018-12-30T06:19:45.982Z,86.05
2018-12-30T06:22:13.768Z,85.50
2018-12-30T06:24:41.630Z,85.55
2018-12-30T06:27:09.448Z,84.37
2018-12-30T06:29:37.446Z,83.73
2018-12-30T06:32:05.264Z,83.31
2018-12-30T06:34:33.088Z,82.88
2018-12-30T06:37:00.835Z,82.86
2018-12-30T06:39:28.613Z,82.51
2018-12-30T06:41:56.420Z,81.89
2018-12-30T06:44:26.011Z,81.33
2018-12-30T06:46:53.805Z,81.26
2018-12-30T06:49:21.584Z,80.96
2018-12-30T06:51:49.338Z,80.81
2018-12-30T06:54:17.204Z,80.33
2018-12-30T06:56:44.988Z,80.30
2018-12-30T06:59:12.976Z,79.65
2018-12-30T07:01:41.082Z,79.65
2018-12-30T07:04:08.849Z,79.12
2018-12-30T07:06:38.394Z,78.59
2018-12-30T07:09:06.650Z,78.45
2018-12-30T07:11:34.462Z,78.80
2018-12-30T07:14:02.273Z,78.10
2018-12-30T07:16:30.041Z,77.38
2018-12-30T07:18:58.945Z,77.13
2018-12-30T07:21:27.082Z,77.35
2018-12-30T07:23:54.915Z,77.74
2018-12-30T07:26:24.473Z,77.82
2018-12-30T07:28:52.313Z,76.52
2018-12-30T07:31:20.107Z,77.04
2018-12-30T07:33:47.891Z,76.83
2018-12-30T07:36:15.682Z,76.10
2018-12-30T07:38:43.493Z,77.03
2018-12-30T07:41:11.239Z,76.17
2018-12-30T07:43:38.983Z,76.27
2018-12-30T07:46:06.875Z,76.29
2018-12-30T07:48:34.638Z,77.02
2018-12-30T07:51:02.631Z,76.31
2018-12-30T07:53:30.682Z,76.60
2018-12-30T07:55:58.468Z,76.05
2018-12-30T07:58:26.253Z,76.28
2018-12-30T08:00:54.144Z,76.43
2018-12-30T08:03:21.912Z,75.95
2018-12-30T08:05:49.871Z,77.01
2018-12-30T08:08:18.022Z,77.12
2018-12-30T08:10:46.791Z,76.71
2018-12-30T08:13:14.767Z,76.48
2018-12-30T08:15:42.548Z,76.67
2018-12-30T08:18:10.346Z,75.30
2018-12-30T08:20:38.172Z,74.49
2018-12-30T08:23:05.975Z,74.91
2018-12-30T08:25:33.843Z,74.73
2018-12-30T08:28:01.613Z,74.92
2018-12-30T08:30:29.385Z,74.56
2018-12-30T08:32:57.183Z,74.60
2018-12-30T08:35:25.143Z,73.29
2018-12-30T08:37:52.909Z,73.36
2018-12-30T08:40:20.671Z,73.65
2018-12-30T08:42:48.453Z,73.41
2018-12-30T08:45:16.260Z,73.11
2018-12-30T08:47:44.039Z,74.02
2018-12-30T08:50:11.822Z,74.11
2018-12-30T08:52:39.641Z,74.63
2018-12-30T08:55:07.377Z,74.49
2018-12-30T08:57:35.186Z,74.01
2018-12-30T09:00:03.629Z,74.60
2018-12-30T09:02:31.518Z,74.25
2018-12-30T09:04:59.278Z,73.77
2018-12-30T09:07:27.118Z,74.73
2018-12-30T09:09:54.981Z,73.31
2018-12-30T09:12:22.944Z,72.81
2018-12-30T09:14:50.708Z,72.82
2018-12-30T09:17:18.564Z,72.91
2018-12-30T09:19:46.338Z,72.67
2018-12-30T09:22:14.096Z,73.55
2018-12-30T09:24:41.842Z,73.99
2018-12-30T09:27:09.600Z,72.58
2018-12-30T09:29:37.400Z,71.40
2018-12-30T09:32:05.237Z,69.72
2018-12-30T09:34:33.823Z,70.78
2018-12-30T09:37:01.881Z,70.82
2018-12-30T09:39:29.775Z,71.33
2018-12-30T09:41:57.557Z,71.80
2018-12-30T09:44:25.335Z,72.50
2018-12-30T09:46:53.100Z,72.49
2018-12-30T09:49:21.232Z,72.82
2018-12-30T09:51:48.969Z,73.42
2018-12-30T09:54:19.032Z,74.44
2018-12-30T09:56:48.099Z,73.53
2018-12-30T09:59:15.901Z,72.32
2018-12-30T10:01:43.679Z,71.71
2018-12-30T10:04:11.434Z,71.98
2018-12-30T10:06:39.229Z,73.09
2018-12-30T10:09:07.707Z,72.85
2018-12-30T10:11:35.514Z,72.21
2018-12-30T10:14:03.883Z,71.90
2018-12-30T10:16:31.681Z,71.71
2018-12-30T10:18:59.519Z,72.54
2018-12-30T10:21:27.365Z,72.01
2018-12-30T10:23:56.018Z,72.67
2018-12-30T10:26:23.801Z,72.49
2018-12-30T10:28:51.613Z,72.20
2018-12-30T10:31:21.741Z,72.49
2018-12-30T10:33:49.545Z,72.13
2018-12-30T10:36:17.350Z,72.54
2018-12-30T10:38:45.228Z,71.65
2018-12-30T10:41:13.134Z,70.66
2018-12-30T10:43:40.898Z,71.12
2018-12-30T10:46:08.729Z,71.29
2018-12-30T10:48:36.497Z,70.87
2018-12-30T10:51:04.350Z,68.86
2018-12-30T10:53:32.304Z,68.25
2018-12-30T10:56:00.183Z,69.22
2018-12-30T10:58:28.070Z,65.65
2018-12-30T11:00:55.880Z,63.83
2018-12-30T11:03:23.642Z,63.90
2018-12-30T11:05:51.920Z,62.72
2018-12-30T11:08:19.837Z,64.18
2018-12-30T11:10:50.784Z,64.08
2018-12-30T11:13:18.655Z,64.34
2018-12-30T11:15:46.474Z,65.19
2018-12-30T11:18:14.488Z,66.90
2018-12-30T11:20:42.357Z,68.37
2018-12-30T11:23:10.205Z,70.80
2018-12-30T11:25:38.059Z,72.01
2018-12-30T11:28:05.863Z,71.88
2018-12-30T11:30:34.748Z,71.46
2018-12-30T11:33:02.571Z,71.31
2018-12-30T11:35:30.450Z,71.73
2018-12-30T11:37:58.247Z,71.55
2018-12-30T11:40:28.962Z,70.80
2018-12-30T11:42:56.741Z,70.93
2018-12-30T11:45:24.582Z,71.23
2018-12-30T11:47:52.387Z,72.53
2018-12-30T11:50:20.548Z,71.97
2018-12-30T11:52:48.560Z,72.58
2018-12-30T11:55:16.416Z,71.62
2018-12-30T11:57:44.271Z,71.87
2018-12-30T12:00:12.165Z,71.63
2018-12-30T12:02:39.923Z,71.61
2018-12-30T12:05:07.747Z,72.14
2018-12-30T12:07:36.136Z,71.86
2018-12-30T12:10:04.352Z,71.76
2018-12-30T12:12:32.255Z,71.77
2018-12-30T12:15:00.154Z,72.51
2018-12-30T12:17:27.986Z,72.19
2018-12-30T12:19:55.783Z,70.47
2018-12-30T12:22:23.732Z,69.14
2018-12-30T12:24:55.577Z,69.10
2018-12-30T12:27:23.507Z,68.67
2018-12-30T12:29:51.318Z,69.27
2018-12-30T12:32:19.159Z,69.50
2018-12-30T12:34:49.917Z,70.05
2018-12-30T12:37:17.776Z,69.62
2018-12-30T12:39:45.549Z,69.24
2018-12-30T12:42:13.417Z,69.16
2018-12-30T12:44:41.189Z,68.50
2018-12-30T12:47:09.124Z,68.53
2018-12-30T12:49:36.961Z,68.34
2018-12-30T12:52:04.817Z,68.07
2018-12-30T12:54:32.663Z,67.31
2018-12-30T12:57:00.485Z,68.46
2018-12-30T12:59:28.417Z,68.81
2018-12-30T13:01:56.282Z,68.61
2018-12-30T13:04:24.121Z,68.46
2018-12-30T13:06:51.973Z,68.59
2018-12-30T13:09:19.776Z,68.49
2018-12-30T13:11:47.611Z,68.29
2018-12-30T13:14:15.434Z,67.71
2018-12-30T13:16:43.256Z,68.02
2018-12-30T13:19:13.842Z,67.70
2018-12-30T13:21:41.642Z,67.65
2018-12-30T13:24:09.475Z,67.89
2018-12-30T13:26:37.269Z,67.61
2018-12-30T13:29:05.070Z,67.85
2018-12-30T13:31:32.851Z,68.24
2018-12-30T13:34:24.062Z,68.31
2018-12-30T13:36:51.831Z,67.57
2018-12-30T13:39:20.942Z,67.56
2018-12-30T13:41:48.941Z,67.28
2018-12-30T13:44:16.832Z,67.80
2018-12-30T13:46:44.677Z,67.46
2018-12-30T13:49:12.450Z,68.11
2018-12-30T13:51:41.249Z,68.48
2018-12-30T13:54:09.035Z,68.56
2018-12-30T13:56:36.792Z,69.35
2018-12-30T13:59:04.639Z,69.32
2018-12-30T14:01:32.440Z,69.02
2018-12-30T14:04:05.279Z,69.50
2018-12-30T14:06:33.130Z,69.41
2018-12-30T14:09:00.996Z,69.63
2018-12-30T14:11:28.931Z,69.85
2018-12-30T14:13:56.798Z,70.23
2018-12-30T14:16:24.583Z,70.27
2018-12-30T14:18:53.671Z,70.43
2018-12-30T14:21:21.591Z,70.24
2018-12-30T14:23:49.419Z,71.69
2018-12-30T14:26:17.279Z,71.57
2018-12-30T14:28:45.157Z,70.93
2018-12-30T14:31:13.003Z,71.43
2018-12-30T14:33:40.855Z,71.14
2018-12-30T14:36:08.606Z,71.46
2018-12-30T14:38:36.400Z,72.01
2018-12-30T14:41:04.203Z,71.38
2018-12-30T14:43:33.327Z,71.28
2018-12-30T14:46:01.111Z,71.45
2018-12-30T14:48:28.886Z,71.57
2018-12-30T14:50:56.649Z,71.83
2018-12-30T14:53:24.426Z,71.86
2018-12-30T14:55:52.249Z,71.95
2018-12-30T14:58:22.893Z,71.91
2018-12-30T15:00:50.691Z,71.72
2018-12-30T15:03:18.454Z,71.99
2018-12-30T15:05:46.330Z,72.40
2018-12-30T15:08:14.260Z,71.84
2018-12-30T15:10:42.038Z,72.98
2018-12-30T15:13:09.850Z,73.34
2018-12-30T15:15:37.750Z,72.84
2018-12-30T15:18:05.552Z,72.69
2018-12-30T15:20:33.385Z,72.75
2018-12-30T15:23:01.152Z,72.85
2018-12-30T15:25:29.004Z,73.30
2018-12-30T15:27:56.891Z,73.53
2018-12-30T15:30:24.706Z,73.71
2018-12-30T15:32:52.712Z,73.30
2018-12-30T15:35:20.475Z,72.47
2018-12-30T15:37:48.250Z,72.78
2018-12-30T15:40:16.043Z,72.01
2018-12-30T15:42:43.806Z,72.03
2018-12-30T15:45:11.597Z,72.20
2018-12-30T15:47:39.358Z,72.14
2018-12-30T15:50:08.098Z,72.00
2018-12-30T15:52:36.218Z,71.81
2018-12-30T15:55:04.206Z,72.02
2018-12-30T15:57:32.294Z,72.02
2018-12-30T16:00:00.072Z,71.76
2018-12-30T16:02:27.868Z,71.79
2018-12-30T16:04:55.614Z,72.16
2018-12-30T16:07:23.678Z,71.62
2018-12-30T16:09:51.587Z,71.83
2018-12-30T16:12:19.747Z,71.74
2018-12-30T16:14:47.522Z,71.85
2018-12-30T16:17:15.332Z,71.44
2018-12-30T16:19:46.355Z,71.58
2018-12-30T16:22:14.146Z,71.86
2018-12-30T16:24:43.636Z,72.24
2018-12-30T16:27:11.381Z,72.44
2018-12-30T16:29:39.343Z,72.66
2018-12-30T16:32:07.369Z,72.06
2018-12-30T16:34:35.149Z,72.31
2018-12-30T16:37:02.977Z,72.45
2018-12-30T16:39:31.135Z,71.48
2018-12-30T16:41:58.977Z,71.53
2018-12-30T16:44:26.792Z,72.20
2018-12-30T16:46:54.876Z,71.92
2018-12-30T16:49:22.983Z,72.09
2018-12-30T16:51:50.757Z,71.99
2018-12-30T16:54:18.559Z,73.35
2018-12-30T16:56:46.336Z,72.62
2018-12-30T16:59:14.223Z,73.17
2018-12-30T17:01:42.069Z,72.83
2018-12-30T17:04:09.946Z,72.14
2018-12-30T17:06:37.757Z,72.75
2018-12-30T17:09:07.382Z,72.95
2018-12-30T17:11:35.435Z,72.67
2018-12-30T17:14:03.388Z,72.50
2018-12-30T17:16:31.325Z,73.36
2018-12-30T17:18:59.301Z,73.24
2018-12-30T17:21:27.105Z,72.84
2018-12-30T17:23:55.039Z,72.84
2018-12-30T17:26:23.393Z,72.82
2018-12-30T17:28:51.238Z,72.92
2018-12-30T17:31:19.036Z,73.34
2018-12-30T17:33:46.832Z,73.54
2018-12-30T17:36:14.682Z,72.97
2018-12-30T17:38:42.571Z,72.56
2018-12-30T17:41:10.382Z,72.44
2018-12-30T17:43:38.238Z,72.97
2018-12-30T17:46:06.057Z,72.85
2018-12-30T17:48:33.916Z,73.10
2018-12-30T17:51:01.797Z,72.73
2018-12-30T17:53:29.709Z,72.52
2018-12-30T17:55:57.530Z,72.90
2018-12-30T17:58:25.319Z,72.95
2018-12-30T18:00:53.130Z,73.11
2018-12-30T18:03:21.039Z,73.54
2018-12-30T18:05:48.852Z,73.00
2018-12-30T18:08:17.652Z,72.80
2018-12-30T18:10:45.538Z,73.26
2018-12-30T18:13:13.373Z,73.41
2018-12-30T18:15:41.165Z,73.65
2018-12-30T18:18:08.971Z,72.99
2018-12-30T18:20:36.765Z,73.85
2018-12-30T18:23:04.597Z,74.37
2018-12-30T18:25:32.590Z,74.33
2018-12-30T18:28:00.781Z,73.72
2018-12-30T18:30:28.652Z,72.73
2018-12-30T18:32:56.435Z,72.51
2018-12-30T18:35:24.979Z,72.71
2018-12-30T18:37:52.745Z,74.15
2018-12-30T18:40:20.590Z,74.31
2018-12-30T18:42:48.434Z,73.52
2018-12-30T18:45:16.254Z,73.89
2018-12-30T18:47:44.081Z,73.71
2018-12-30T18:50:11.939Z,74.41
2018-12-30T18:52:39.741Z,74.70
2018-12-30T18:55:07.552Z,74.82
2018-12-30T18:57:38.662Z,74.68
2018-12-30T19:00:10.685Z,73.95
2018-12-30T19:02:38.531Z,74.35
2018-12-30T19:05:07.442Z,74.88
2018-12-30T19:07:35.320Z,75.43
2018-12-30T19:10:03.306Z,75.05
2018-12-30T19:12:31.090Z,75.08
2018-12-30T19:14:58.944Z,75.34
2018-12-30T19:17:26.729Z,74.49
2018-12-30T19:19:54.515Z,75.79
2018-12-30T19:22:22.284Z,75.17
2018-12-30T19:24:50.076Z,75.62
2018-12-30T19:27:17.806Z,76.14
2018-12-30T19:29:45.610Z,75.90
2018-12-30T19:32:13.414Z,76.27
2018-12-30T19:34:41.186Z,75.97
2018-12-30T19:37:08.970Z,76.08
2018-12-30T19:39:36.735Z,76.26
2018-12-30T19:42:04.501Z,76.50
2018-12-30T19:44:32.294Z,76.95
2018-12-30T19:47:00.072Z,77.68
2018-12-30T19:49:27.877Z,77.74
2018-12-30T19:51:55.668Z,77.51
2018-12-30T19:54:23.452Z,77.67
2018-12-30T19:56:51.287Z,78.24
2018-12-30T19:59:19.083Z,78.32
2018-12-30T20:01:46.909Z,78.79
2018-12-30T20:04:14.809Z,79.19
2018-12-30T20:06:42.631Z,79.17
2018-12-30T20:09:10.408Z,79.30
2018-12-30T20:11:38.195Z,79.41
2018-12-30T20:14:06.145Z,80.08
2018-12-30T20:16:33.901Z,80.62
2018-12-30T20:19:01.685Z,80.53
2018-12-30T20:21:30.301Z,80.48
2018-12-30T20:23:58.907Z,80.49
2018-12-30T20:26:29.983Z,80.16
2018-12-30T20:28:56.409Z,80.10
2018-12-30T20:31:24.281Z,80.02
2018-12-30T20:33:52.087Z,80.13
2018-12-30T20:36:19.878Z,80.19
2018-12-30T20:38:47.642Z,80.35
2018-12-30T20:41:15.513Z,80.37
2018-12-30T20:43:43.352Z,80.61
2018-12-30T20:46:11.282Z,80.87
2018-12-30T20:48:39.051Z,81.10
2018-12-30T20:51:06.857Z,80.84
2018-12-30T20:53:34.672Z,80.86
2018-12-30T20:56:02.555Z,80.86
2018-12-30T20:58:30.371Z,81.06
2018-12-30T21:00:58.167Z,81.74
2018-12-30T21:04:14.594Z,81.89
2018-12-30T21:06:42.424Z,82.25
2018-12-30T21:09:10.206Z,81.24
2018-12-30T21:12:05.044Z,81.73
2018-12-30T21:14:32.818Z,81.63
2018-12-30T21:17:00.656Z,81.65
2018-12-30T21:19:28.398Z,81.80
2018-12-30T21:21:56.214Z,81.44
2018-12-30T21:24:23.976Z,81.76
2018-12-30T21:26:51.787Z,81.71
2018-12-30T21:29:19.542Z,81.73
2018-12-30T21:31:47.384Z,82.62
2018-12-30T21:34:15.154Z,82.75
2018-12-30T21:36:42.972Z,82.62
2018-12-30T21:39:10.794Z,82.16
2018-12-30T21:41:38.555Z,82.03
2018-12-30T21:44:07.132Z,81.68
2018-12-30T21:46:34.905Z,81.53
2018-12-30T21:49:02.735Z,81.90
2018-12-30T21:51:30.626Z,82.14
2018-12-30T21:53:58.441Z,81.17
2018-12-30T21:56:26.200Z,80.66
2018-12-30T21:58:54.020Z,79.91
2018-12-30T22:01:21.794Z,79.77
2018-12-30T22:03:49.575Z,79.74
2018-12-30T22:06:17.380Z,80.51
2018-12-30T22:08:45.198Z,81.60
2018-12-30T22:11:12.956Z,82.42
2018-12-30T22:13:40.743Z,82.69
2018-12-30T22:16:08.510Z,82.95
2018-12-30T22:18:36.349Z,82.53
2018-12-30T22:21:04.137Z,82.48
2018-12-30T22:23:32.246Z,81.89
2018-12-30T22:26:00.032Z,82.05
2018-12-30T22:28:27.845Z,82.57
2018-12-30T22:30:55.602Z,82.44
2018-12-30T22:33:23.371Z,82.53
2018-12-30T22:35:51.141Z,82.32
2018-12-30T22:38:18.945Z,81.99
2018-12-30T22:40:47.553Z,81.87
2018-12-30T22:43:15.387Z,82.18
2018-12-30T22:45:43.219Z,82.46
2018-12-30T22:48:11.043Z,82.52
2018-12-30T22:50:38.914Z,82.86
2018-12-30T22:53:06.722Z,83.38
2018-12-30T22:55:34.489Z,83.82
2018-12-30T22:58:02.329Z,84.14
2018-12-30T23:00:49.830Z,84.13
2018-12-30T23:03:17.620Z,83.87
2018-12-30T23:05:47.210Z,83.33
2018-12-30T23:08:15.084Z,83.92
2018-12-30T23:10:43.598Z,83.21
2018-12-30T23:13:11.679Z,83.44
2018-12-30T23:15:39.455Z,83.95
2018-12-30T23:18:07.250Z,84.49
2018-12-30T23:20:35.068Z,84.16
2018-12-30T23:23:03.068Z,83.66
2018-12-30T23:25:30.889Z,82.79
2018-12-30T23:27:58.661Z,83.09
2018-12-30T23:30:28.076Z,83.60
2018-12-30T23:32:55.871Z,83.24
2018-12-30T23:35:23.678Z,83.16
2018-12-30T23:37:51.463Z,83.24
2018-12-30T23:40:19.282Z,83.02
2018-12-30T23:42:47.109Z,83.21
2018-12-30T23:45:14.974Z,83.57
2018-12-30T23:47:42.724Z,83.72
2018-12-30T23:50:10.490Z,83.84
2018-12-30T23:52:38.280Z,83.48
2018-12-30T23:55:06.075Z,83.12
2018-12-30T23:57:33.874Z,83.82
